createdAt,value
2019-04-04T00:00:29.550Z,2.7
2019-04-04T00:01:29.716Z,2.6
2019-04-04T00:02:29.863Z,2.4
2019-04-04T00:03:29.963Z,2.3
2019-04-04T00:04:30.078Z,2.5
2019-04-04T00:05:30.237Z,2.4
2019-04-04T00:06:30.360Z,2.4
2019-04-04T00:07:30.479Z,2.3
2019-04-04T00:08:31.563Z,2.2
2019-04-04T00:09:33.115Z,2.3
2019-04-04T00:10:32.804Z,2.6
2019-04-04T00:11:31.796Z,2.2
2019-04-04T00:12:30.879Z,2.3
2019-04-04T00:13:30.831Z,2.6
2019-04-04T00:14:30.977Z,2.5
2019-04-04T00:15:31.108Z,2.3
2019-04-04T00:16:31.281Z,2.3
2019-04-04T00:17:31.407Z,2.4
2019-04-04T00:18:31.564Z,2.4
2019-04-04T00:19:31.677Z,2.4
2019-04-04T00:20:32.363Z,2.4
2019-04-04T00:21:31.976Z,2.1
2019-04-04T00:22:35.138Z,2.5
2019-04-04T00:23:33.066Z,2.5
2019-04-04T00:24:33.102Z,2.3
2019-04-04T00:25:32.138Z,2.2
2019-04-04T00:26:32.284Z,2.1
2019-04-04T00:27:32.429Z,2
2019-04-04T00:28:32.563Z,2.1
2019-04-04T00:29:32.705Z,2.1
2019-04-04T00:30:32.832Z,2.2
2019-04-04T00:31:32.949Z,2.2
2019-04-04T00:32:33.069Z,2.3
2019-04-04T00:33:33.168Z,2.1
2019-04-04T00:34:33.313Z,2.1
2019-04-04T00:35:33.465Z,2.1
2019-04-04T00:36:34.564Z,2.1
2019-04-04T00:37:36.066Z,2.2
2019-04-04T00:38:36.010Z,2.4
2019-04-04T00:39:34.782Z,2.3
2019-04-04T00:40:33.826Z,1.9
2019-04-04T00:41:33.946Z,2.2
2019-04-04T00:42:34.076Z,2.1
2019-04-04T00:43:34.211Z,2.3
2019-04-04T00:44:34.338Z,2.2
2019-04-04T00:45:34.467Z,2.4
2019-04-04T00:46:34.585Z,2.4
2019-04-04T00:47:34.700Z,2.5
2019-04-04T00:48:34.833Z,2
2019-04-04T00:49:35.519Z,2.2
2019-04-04T00:50:36.713Z,2
2019-04-04T00:51:38.639Z,2.3
2019-04-04T00:52:36.092Z,1.9
2019-04-04T00:53:35.148Z,2.1
2019-04-04T00:54:35.269Z,2.2
2019-04-04T00:55:35.400Z,2.2
2019-04-04T00:56:35.515Z,2.1
2019-04-04T00:57:35.673Z,1.9
2019-04-04T00:58:35.807Z,2.5
2019-04-04T00:59:35.944Z,2.1
2019-04-04T01:00:36.074Z,1.9
2019-04-04T01:01:36.204Z,2.2
2019-04-04T01:02:36.340Z,2.3
2019-04-04T01:03:36.463Z,2.3
2019-04-04T01:04:36.566Z,2
2019-04-04T01:05:36.736Z,2.2
2019-04-04T01:06:36.840Z,2
2019-04-04T01:07:36.988Z,2
2019-04-04T01:08:38.749Z,2.2
2019-04-04T01:09:38.267Z,2.2
2019-04-04T01:10:37.354Z,2.1
2019-04-04T01:11:37.300Z,2.1
2019-04-04T01:12:37.447Z,1.8
2019-04-04T01:13:37.570Z,2
2019-04-04T01:14:37.682Z,2.1
2019-04-04T01:15:37.825Z,2
2019-04-04T01:16:37.929Z,1.6
2019-04-04T01:17:38.039Z,2
2019-04-04T01:18:38.150Z,2.3
2019-04-04T01:19:38.268Z,2.2
2019-04-04T01:20:38.410Z,2.5
2019-04-04T01:21:38.553Z,2.1
2019-04-04T01:22:38.696Z,2.1
2019-04-04T01:23:38.816Z,2
2019-04-04T01:24:38.924Z,2.1
2019-04-04T01:25:39.076Z,2.2
2019-04-04T01:26:39.194Z,2.1
2019-04-04T01:27:39.326Z,2.2
2019-04-04T01:28:39.672Z,2.1
2019-04-04T01:29:40.843Z,1.8
2019-04-04T01:30:41.635Z,2.1
2019-04-04T01:31:40.745Z,1.9
2019-04-04T01:32:39.763Z,2.1
2019-04-04T01:33:39.903Z,2.2
2019-04-04T01:34:40.045Z,2.2
2019-04-04T01:35:40.169Z,2
2019-04-04T01:36:40.305Z,2.1
2019-04-04T01:37:40.425Z,2.3
2019-04-04T01:38:40.573Z,1.9
2019-04-04T01:39:40.675Z,2.1
2019-04-04T01:40:40.817Z,1.9
2019-04-04T01:41:40.939Z,2.1
2019-04-04T01:42:41.076Z,2
2019-04-04T01:43:41.199Z,1.9
2019-04-04T01:44:42.165Z,2.1
2019-04-04T01:45:44.027Z,2.3
2019-04-04T01:46:43.961Z,2.6
2019-04-04T01:47:42.475Z,2.2
2019-04-04T01:48:41.535Z,2.1
2019-04-04T01:49:41.655Z,2.3
2019-04-04T01:50:41.771Z,2.6
2019-04-04T01:51:41.901Z,2.4
2019-04-04T01:52:42.065Z,1.9
2019-04-04T01:53:42.127Z,2.1
2019-04-04T01:54:42.240Z,2.3
2019-04-04T01:55:42.364Z,1.8
2019-04-04T01:56:42.503Z,2.3
2019-04-04T01:57:42.622Z,2.5
2019-04-04T01:58:42.738Z,2.1
2019-04-04T01:59:43.826Z,2.6
2019-04-04T02:00:45.801Z,2.1
2019-04-04T02:01:46.542Z,1.9
2019-04-04T02:02:44.031Z,2
2019-04-04T02:03:43.045Z,1.9
2019-04-04T02:04:43.166Z,2.3
2019-04-04T02:05:43.291Z,2.1
2019-04-04T02:06:43.429Z,2.1
2019-04-04T02:07:43.621Z,2.4
2019-04-04T02:08:43.687Z,2.2
2019-04-04T02:09:43.781Z,2.4
2019-04-04T02:10:43.895Z,2.2
2019-04-04T02:11:44.040Z,2.2
2019-04-04T02:12:44.167Z,2.2
2019-04-04T02:13:44.291Z,2.2
2019-04-04T02:14:44.406Z,2.2
2019-04-04T02:15:45.207Z,2.1
2019-04-04T02:16:45.590Z,2.1
2019-04-04T02:17:45.755Z,2.2
2019-04-04T02:18:44.789Z,2.1
2019-04-04T02:19:44.902Z,2.1
2019-04-04T02:20:45.043Z,2.1
2019-04-04T02:21:45.180Z,2
2019-04-04T02:22:45.317Z,2
2019-04-04T02:23:45.503Z,2.2
2019-04-04T02:24:45.563Z,2.1
2019-04-04T02:25:45.687Z,2.4
2019-04-04T02:26:45.787Z,2.2
2019-04-04T02:27:45.928Z,2.4
2019-04-04T02:28:46.058Z,2.3
2019-04-04T02:29:47.177Z,1.7
2019-04-04T02:30:48.431Z,2
2019-04-04T02:31:47.322Z,2.2
2019-04-04T02:32:46.368Z,1.8
2019-04-04T02:33:47.489Z,2
2019-04-04T02:34:46.495Z,2.2
2019-04-04T02:35:46.618Z,2.4
2019-04-04T02:36:49.165Z,2.3
2019-04-04T02:37:47.863Z,2
2019-04-04T02:38:46.896Z,2.3
2019-04-04T02:39:47.013Z,2.2
2019-04-04T02:40:47.113Z,2.2
2019-04-04T02:41:48.145Z,2
2019-04-04T02:42:48.367Z,2.2
2019-04-04T02:43:47.404Z,2.3
2019-04-04T02:44:47.564Z,2.4
2019-04-04T02:45:47.712Z,2.2
2019-04-04T02:46:47.819Z,2.2
2019-04-04T02:47:51.122Z,2.5
2019-04-04T02:48:49.039Z,2.2
2019-04-04T02:49:48.095Z,2
2019-04-04T02:50:48.226Z,2
2019-04-04T02:51:48.331Z,2.6
2019-04-04T02:52:48.455Z,2.3
2019-04-04T02:53:51.691Z,2.4
2019-04-04T02:54:49.705Z,2.2
2019-04-04T02:55:48.752Z,2.3
2019-04-04T02:56:48.893Z,2.6
2019-04-04T02:57:49.011Z,2.5
2019-04-04T02:58:49.107Z,2.2
2019-04-04T02:59:52.777Z,2.5
2019-04-04T03:00:50.411Z,2.3
2019-04-04T03:01:49.432Z,2.1
2019-04-04T03:02:49.552Z,2.1
2019-04-04T03:03:49.690Z,2.2
2019-04-04T03:04:49.759Z,2.1
2019-04-04T03:05:51.843Z,2.3
2019-04-04T03:06:51.019Z,2.3
2019-04-04T03:07:50.046Z,2.3
2019-04-04T03:08:50.164Z,2
2019-04-04T03:09:50.293Z,2.6
2019-04-04T03:10:50.422Z,1.8
2019-04-04T03:11:53.464Z,2.2
2019-04-04T03:12:51.655Z,2.5
2019-04-04T03:13:50.702Z,2.6
2019-04-04T03:14:51.787Z,2.6
2019-04-04T03:15:50.815Z,2.4
2019-04-04T03:16:50.948Z,2.3
2019-04-04T03:17:51.061Z,2.5
2019-04-04T03:18:51.174Z,2.4
2019-04-04T03:19:51.290Z,2.1
2019-04-04T03:20:51.381Z,2.9
2019-04-04T03:21:54.659Z,2.3
2019-04-04T03:22:52.642Z,2.6
2019-04-04T03:23:51.653Z,2.7
2019-04-04T03:24:51.759Z,2.2
2019-04-04T03:25:51.868Z,2
2019-04-04T03:26:52.573Z,2.1
2019-04-04T03:27:53.134Z,2.5
2019-04-04T03:28:52.152Z,2.5
2019-04-04T03:29:52.268Z,2.5
2019-04-04T03:31:01.227Z,2.5
2019-04-04T03:31:54.461Z,2
2019-04-04T03:32:54.809Z,2.5
2019-04-04T03:33:53.718Z,2.3
2019-04-04T03:34:52.675Z,2.2
2019-04-04T03:35:52.791Z,2.5
2019-04-04T03:36:52.906Z,2.3
2019-04-04T03:37:53.025Z,2.2
2019-04-04T03:38:53.137Z,2.2
2019-04-04T03:39:53.527Z,2.4
2019-04-04T03:40:57.217Z,2.2
2019-04-04T03:41:54.517Z,2.4
2019-04-04T03:42:53.529Z,2.4
2019-04-04T03:43:53.640Z,2.2
2019-04-04T03:44:54.394Z,2.6
2019-04-04T03:45:53.880Z,2.4
2019-04-04T03:46:54.000Z,2.2
2019-04-04T03:47:54.098Z,2.2
2019-04-04T03:48:54.217Z,2.1
2019-04-04T03:49:57.476Z,2.6
2019-04-04T03:50:57.233Z,2.3
2019-04-04T03:51:55.479Z,1.9
2019-04-04T03:52:54.505Z,2.2
2019-04-04T03:53:54.617Z,2.3
2019-04-04T03:54:56.180Z,2.1
2019-04-04T03:55:59.910Z,2.5
2019-04-04T03:56:55.883Z,2.3
2019-04-04T03:57:55.297Z,2.6
2019-04-04T03:58:55.026Z,2.1
2019-04-04T03:59:55.170Z,2.5
2019-04-04T04:00:55.322Z,2.5
2019-04-04T04:01:55.408Z,2.3
2019-04-04T04:02:55.502Z,2.4
2019-04-04T04:03:55.800Z,2.3
2019-04-04T04:05:00.271Z,2.1
2019-04-04T04:05:56.898Z,2.1
2019-04-04T04:06:55.940Z,2.2
2019-04-04T04:07:56.049Z,2.3
2019-04-04T04:08:56.141Z,2.4
2019-04-04T04:09:59.238Z,2.3
2019-04-04T04:10:57.412Z,2.2
2019-04-04T04:11:56.438Z,2.4
2019-04-04T04:12:56.606Z,2.4
2019-04-04T04:13:56.708Z,2.3
2019-04-04T04:14:56.813Z,2.3
2019-04-04T04:15:56.929Z,2.4
2019-04-04T04:16:57.070Z,2.3
2019-04-04T04:17:57.233Z,2.2
2019-04-04T04:18:57.312Z,2.7
2019-04-04T04:19:57.456Z,2.3
2019-04-04T04:20:57.591Z,2.4
2019-04-04T04:21:57.742Z,2.4
2019-04-04T04:22:57.854Z,2.2
2019-04-04T04:23:58.167Z,2.4
2019-04-04T04:25:02.017Z,2.5
2019-04-04T04:25:59.257Z,2.4
2019-04-04T04:26:58.288Z,2.3
2019-04-04T04:28:02.606Z,2.2
2019-04-04T04:28:59.533Z,2.2
2019-04-04T04:29:59.727Z,2.1
2019-04-04T04:30:59.745Z,2.5
2019-04-04T04:31:58.788Z,2.4
2019-04-04T04:32:58.917Z,2.6
2019-04-04T04:34:01.549Z,2.3
2019-04-04T04:35:00.182Z,2.4
2019-04-04T04:35:59.234Z,2.4
2019-04-04T04:36:59.372Z,2.2
2019-04-04T04:37:59.507Z,2.3
2019-04-04T04:39:00.253Z,2.3
2019-04-04T04:39:59.782Z,2.3
2019-04-04T04:40:59.903Z,2.5
2019-04-04T04:42:00.044Z,2.2
2019-04-04T04:43:00.965Z,2.4
2019-04-04T04:44:02.678Z,2.2
2019-04-04T04:45:01.465Z,2.3
2019-04-04T04:46:00.565Z,2.5
2019-04-04T04:47:00.469Z,2.5
2019-04-04T04:48:01.286Z,2.3
2019-04-04T04:49:03.167Z,2.3
2019-04-04T04:50:01.789Z,2.3
2019-04-04T04:51:00.829Z,2.4
2019-04-04T04:52:00.965Z,2.5
2019-04-04T04:53:01.101Z,2.3
2019-04-04T04:54:01.341Z,2.3
2019-04-04T04:55:01.388Z,2.2
2019-04-04T04:56:01.961Z,2.3
2019-04-04T04:57:03.880Z,2.7
2019-04-04T04:58:02.692Z,2.2
2019-04-04T04:59:01.741Z,2.6
2019-04-04T05:00:01.882Z,2.4
2019-04-04T05:01:02.016Z,2.3
2019-04-04T05:02:02.138Z,2.3
2019-04-04T05:03:02.295Z,2.5
2019-04-04T05:04:02.772Z,2.2
2019-04-04T05:05:02.579Z,2.3
2019-04-04T05:06:03.308Z,2.7
2019-04-04T05:07:02.532Z,2.2
2019-04-04T05:08:02.824Z,2.3
2019-04-04T05:09:02.780Z,2.6
2019-04-04T05:10:02.942Z,2.5
2019-04-04T05:11:03.138Z,2.4
2019-04-04T05:12:03.121Z,2.3
2019-04-04T05:13:03.378Z,2.1
2019-04-04T05:14:03.304Z,2.5
2019-04-04T05:15:03.434Z,2.6
2019-04-04T05:16:04.763Z,2.9
2019-04-04T05:17:04.612Z,2.5
2019-04-04T05:18:03.699Z,2.6
2019-04-04T05:19:03.980Z,2.6
2019-04-04T05:20:04.064Z,2.6
2019-04-04T05:21:03.983Z,2.2
2019-04-04T05:22:04.107Z,2.7
2019-04-04T05:23:04.316Z,2.3
2019-04-04T05:24:04.282Z,2.4
2019-04-04T05:25:08.189Z,2.4
2019-04-04T05:26:05.466Z,2.7
2019-04-04T05:27:05.986Z,2.3
2019-04-04T05:28:06.291Z,2.3
2019-04-04T05:29:04.786Z,2.4
2019-04-04T05:30:05.726Z,2.9
2019-04-04T05:31:06.043Z,2.5
2019-04-04T05:32:05.196Z,2.8
2019-04-04T05:33:05.126Z,2.6
2019-04-04T05:34:05.293Z,2.9
2019-04-04T05:35:05.421Z,2.8
2019-04-04T05:36:06.049Z,2.9
2019-04-04T05:37:07.183Z,3
2019-04-04T05:38:07.816Z,2.7
2019-04-04T05:39:07.050Z,3
2019-04-04T05:40:05.914Z,3.2
2019-04-04T05:41:06.093Z,3.2
2019-04-04T05:42:06.256Z,3
2019-04-04T05:43:06.478Z,3.1
2019-04-04T05:44:09.838Z,3.3
2019-04-04T05:45:07.466Z,3.3
2019-04-04T05:46:06.506Z,3.6
2019-04-04T05:47:06.666Z,3.3
2019-04-04T05:48:06.758Z,3.8
2019-04-04T05:49:08.205Z,3.5
2019-04-04T05:50:10.888Z,3.5
2019-04-04T05:51:08.021Z,4.2
2019-04-04T05:52:09.062Z,4
2019-04-04T05:53:08.232Z,4
2019-04-04T05:54:08.198Z,4.1
2019-04-04T05:55:10.779Z,4.3
2019-04-04T05:56:08.349Z,4.3
2019-04-04T05:57:07.374Z,4.1
2019-04-04T05:58:07.585Z,4.1
2019-04-04T05:59:07.553Z,4
2019-04-04T06:00:07.694Z,4.6
2019-04-04T06:01:07.861Z,4.1
2019-04-04T06:02:10.985Z,4.7
2019-04-04T06:03:09.143Z,4.1
2019-04-04T06:04:08.143Z,4.3
2019-04-04T06:05:08.323Z,4
2019-04-04T06:06:10.435Z,4.3
2019-04-04T06:07:09.598Z,4.1
2019-04-04T06:08:08.797Z,4
2019-04-04T06:09:08.944Z,3.9
2019-04-04T06:10:11.788Z,4.1
2019-04-04T06:11:10.014Z,3.6
2019-04-04T06:12:09.058Z,3.5
2019-04-04T06:13:09.298Z,3.9
2019-04-04T06:14:09.254Z,3.8
2019-04-04T06:15:09.391Z,3.6
2019-04-04T06:16:09.529Z,4.3
2019-04-04T06:17:09.664Z,3.6
2019-04-04T06:18:11.727Z,3.6
2019-04-04T06:19:13.936Z,3.4
2019-04-04T06:20:11.007Z,3.6
2019-04-04T06:21:10.054Z,3.8
2019-04-04T06:22:10.237Z,3.7
2019-04-04T06:23:10.376Z,3.7
2019-04-04T06:24:10.522Z,3.5
2019-04-04T06:25:10.676Z,3.6
2019-04-04T06:26:10.805Z,3.4
2019-04-04T06:27:10.957Z,3.6
2019-04-04T06:28:11.930Z,3.6
2019-04-04T06:29:12.212Z,3.5
2019-04-04T06:30:11.280Z,3.5
2019-04-04T06:31:11.402Z,3.5
2019-04-04T06:32:11.594Z,3.5
2019-04-04T06:33:11.526Z,3.6
2019-04-04T06:34:12.050Z,3.6
2019-04-04T06:35:13.167Z,3.1
2019-04-04T06:36:13.000Z,3.5
2019-04-04T06:37:12.072Z,3.1
2019-04-04T06:38:12.045Z,3.2
2019-04-04T06:39:12.207Z,3.5
2019-04-04T06:40:12.348Z,3.2
2019-04-04T06:41:12.538Z,3.6
2019-04-04T06:42:12.709Z,3.3
2019-04-04T06:43:12.830Z,3.4
2019-04-04T06:44:13.663Z,3.1
2019-04-04T06:45:15.017Z,3.3
2019-04-04T06:46:14.335Z,3.4
2019-04-04T06:47:16.216Z,3.5
2019-04-04T06:48:14.612Z,3.1
2019-04-04T06:49:13.676Z,3.2
2019-04-04T06:50:13.926Z,2.9
2019-04-04T06:51:14.845Z,3.3
2019-04-04T06:52:16.211Z,3.3
2019-04-04T06:53:15.301Z,2.9
2019-04-04T06:54:14.672Z,3
2019-04-04T06:55:14.567Z,2.8
2019-04-04T06:56:14.800Z,3.4
2019-04-04T06:57:14.412Z,2.9
2019-04-04T06:58:16.817Z,3.1
2019-04-04T06:59:15.791Z,3
2019-04-04T07:00:15.788Z,2.4
2019-04-04T07:01:16.124Z,2.9
2019-04-04T07:02:15.220Z,3
2019-04-04T07:03:15.198Z,2.8
2019-04-04T07:04:17.229Z,3
2019-04-04T07:05:16.517Z,2.9
2019-04-04T07:06:15.638Z,2.7
2019-04-04T07:07:15.806Z,2.8
2019-04-04T07:08:16.010Z,3.1
2019-04-04T07:09:18.383Z,3
2019-04-04T07:10:18.989Z,3.1
2019-04-04T07:11:21.328Z,3
2019-04-04T07:12:22.459Z,2.9
2019-04-04T07:13:21.842Z,2.7
2019-04-04T07:14:17.401Z,2.8
2019-04-04T07:15:16.429Z,2.9
2019-04-04T07:16:16.628Z,2.7
2019-04-04T07:17:16.652Z,3.1
2019-04-04T07:18:16.634Z,2.9
2019-04-04T07:19:16.874Z,2.6
2019-04-04T07:20:17.439Z,3
2019-04-04T07:21:19.631Z,2.9
2019-04-04T07:22:20.469Z,2.8
2019-04-04T07:23:18.231Z,3
2019-04-04T07:24:17.279Z,2.4
2019-04-04T07:25:17.464Z,2.9
2019-04-04T07:26:17.551Z,3.2
2019-04-04T07:27:17.529Z,2.6
2019-04-04T07:28:18.963Z,3.1
2019-04-04T07:29:18.684Z,2.6
2019-04-04T07:30:18.045Z,2.4
2019-04-04T07:31:17.830Z,2.8
2019-04-04T07:32:18.087Z,2.6
2019-04-04T07:33:21.072Z,2.9
2019-04-04T07:34:19.139Z,2.7
2019-04-04T07:35:20.808Z,3
2019-04-04T07:36:20.821Z,3
2019-04-04T07:37:21.691Z,3.1
2019-04-04T07:38:20.001Z,3
2019-04-04T07:39:18.821Z,2.6
2019-04-04T07:40:20.321Z,3.1
2019-04-04T07:41:19.936Z,3.3
2019-04-04T07:42:20.516Z,2.8
2019-04-04T07:43:19.260Z,3.2
2019-04-04T07:44:21.108Z,3.1
2019-04-04T07:45:20.285Z,2.6
2019-04-04T07:46:19.339Z,2.9
2019-04-04T07:47:19.482Z,3.3
2019-04-04T07:48:20.093Z,3.4
2019-04-04T07:49:21.068Z,2.9
2019-04-04T07:50:20.981Z,2.9
2019-04-04T07:51:20.082Z,3.1
2019-04-04T07:52:21.080Z,2.8
2019-04-04T07:53:20.180Z,3
2019-04-04T07:54:20.209Z,2.9
2019-04-04T07:55:20.216Z,3
2019-04-04T07:56:20.657Z,2.8
2019-04-04T07:57:20.430Z,3.4
2019-04-04T07:58:20.652Z,2.8
2019-04-04T07:59:20.734Z,3.3
2019-04-04T08:00:20.726Z,3.1
2019-04-04T08:01:20.953Z,3.2
2019-04-04T08:02:20.926Z,3.6
2019-04-04T08:03:21.081Z,2.8
2019-04-04T08:04:21.310Z,2.6
2019-04-04T08:05:21.333Z,3.3
2019-04-04T08:06:21.382Z,3.5
2019-04-04T08:07:22.162Z,3.2
2019-04-04T08:08:21.443Z,3.2
2019-04-04T08:09:21.472Z,3.5
2019-04-04T08:10:22.047Z,3.2
2019-04-04T08:11:21.575Z,3.4
2019-04-04T08:12:21.605Z,3.3
2019-04-04T08:13:21.742Z,3.2
2019-04-04T08:14:21.770Z,3.3
2019-04-04T08:15:21.832Z,2.9
2019-04-04T08:16:22.309Z,3.1
2019-04-04T08:17:22.048Z,3.7
2019-04-04T08:18:22.169Z,3.5
2019-04-04T08:19:23.401Z,3.1
2019-04-04T08:20:22.426Z,2.9
2019-04-04T08:21:22.423Z,3.2
2019-04-04T08:22:22.699Z,3.2
2019-04-04T08:23:22.663Z,2.6
2019-04-04T08:24:22.673Z,2.7
2019-04-04T08:25:22.705Z,2.8
2019-04-04T08:26:22.812Z,2.4
2019-04-04T08:27:22.814Z,2.5
2019-04-04T08:28:22.937Z,2.5
2019-04-04T08:29:23.567Z,2.3
2019-04-04T08:30:23.128Z,2.2
2019-04-04T08:31:23.216Z,2.5
2019-04-04T08:32:23.182Z,2.3
2019-04-04T08:33:23.365Z,2
2019-04-04T08:34:23.367Z,2.3
2019-04-04T08:35:23.384Z,2.3
2019-04-04T08:36:23.421Z,2.3
2019-04-04T08:37:23.571Z,2.1
2019-04-04T08:38:23.751Z,2
2019-04-04T08:39:23.792Z,2
2019-04-04T08:40:23.802Z,1.7
2019-04-04T08:41:23.826Z,2
2019-04-04T08:42:26.405Z,2.3
2019-04-04T08:43:25.879Z,1.7
2019-04-04T08:44:24.213Z,1.8
2019-04-04T08:45:23.837Z,1.7
2019-04-04T08:46:23.873Z,2
2019-04-04T08:47:24.857Z,1.6
2019-04-04T08:48:23.924Z,1.7
2019-04-04T08:49:24.080Z,1.8
2019-04-04T08:50:24.157Z,1.5
2019-04-04T08:51:24.105Z,2.2
2019-04-04T08:52:24.050Z,1.7
2019-04-04T08:53:24.196Z,1.9
2019-04-04T08:54:24.422Z,1.4
2019-04-04T08:55:24.397Z,1.7
2019-04-04T08:56:24.578Z,1.5
2019-04-04T08:57:24.363Z,1.5
2019-04-04T08:58:24.522Z,1.5
2019-04-04T08:59:24.517Z,2.1
2019-04-04T09:00:24.514Z,1.8
2019-04-04T09:01:24.503Z,1.4
2019-04-04T09:02:25.315Z,1.9
2019-04-04T09:03:24.542Z,2.1
2019-04-04T09:04:25.176Z,1.6
2019-04-04T09:05:25.338Z,1.5
2019-04-04T09:06:24.552Z,1.7
2019-04-04T09:07:24.740Z,1.8
2019-04-04T09:08:24.692Z,1.8
2019-04-04T09:09:24.841Z,1.5
2019-04-04T09:10:25.022Z,1.6
2019-04-04T09:11:24.967Z,1.6
2019-04-04T09:12:24.961Z,2.1
2019-04-04T09:13:24.943Z,1.4
2019-04-04T09:14:25.121Z,1.6
2019-04-04T09:15:25.121Z,1.7
2019-04-04T09:16:25.176Z,1.7
2019-04-04T09:17:25.135Z,2
2019-04-04T09:18:25.792Z,2
2019-04-04T09:19:25.234Z,1.8
2019-04-04T09:20:25.225Z,1.7
2019-04-04T09:21:25.203Z,1.6
2019-04-04T09:22:25.237Z,1.8
2019-04-04T09:23:25.274Z,1.6
2019-04-04T09:24:25.382Z,1.7
2019-04-04T09:25:25.395Z,1.6
2019-04-04T09:26:25.381Z,1.8
2019-04-04T09:27:25.338Z,1.6
2019-04-04T09:28:25.332Z,1.9
2019-04-04T09:29:25.827Z,1.8
2019-04-04T09:30:25.691Z,1.6
2019-04-04T09:31:25.456Z,2
2019-04-04T09:32:25.574Z,1.6
2019-04-04T09:33:25.714Z,1.7
2019-04-04T09:34:25.853Z,1.8
2019-04-04T09:35:26.002Z,1.8
2019-04-04T09:36:26.148Z,1.4
2019-04-04T09:37:26.109Z,1.6
2019-04-04T09:38:29.007Z,1.7
2019-04-04T09:39:27.249Z,1.4
2019-04-04T09:40:26.320Z,1.7
2019-04-04T09:41:26.299Z,1.6
2019-04-04T09:42:26.337Z,1.6
2019-04-04T09:43:26.343Z,1.6
2019-04-04T09:44:26.360Z,1.7
2019-04-04T09:45:26.359Z,1.6
2019-04-04T09:46:26.321Z,1.7
2019-04-04T09:47:26.469Z,1.5
2019-04-04T09:48:26.472Z,1.6
2019-04-04T09:49:26.509Z,1.6
2019-04-04T09:50:26.502Z,2
2019-04-04T09:51:26.503Z,1.4
2019-04-04T09:52:27.541Z,1.5
2019-04-04T09:53:26.732Z,1.7
2019-04-04T09:54:26.732Z,1.4
2019-04-04T09:55:26.718Z,1.3
2019-04-04T09:56:26.879Z,1.3
2019-04-04T09:57:26.999Z,1.5
2019-04-04T09:58:27.192Z,1.6
2019-04-04T09:59:27.252Z,1.8
2019-04-04T10:00:27.248Z,1.4
2019-04-04T10:01:27.225Z,1.4
2019-04-04T10:02:27.215Z,1.5
2019-04-04T10:03:27.235Z,1.7
2019-04-04T10:04:27.203Z,1.5
2019-04-04T10:05:27.254Z,1.9
2019-04-04T10:06:27.205Z,1.3
2019-04-04T10:07:27.426Z,1.6
2019-04-04T10:08:30.293Z,1.6
2019-04-04T10:09:27.550Z,1.3
2019-04-04T10:10:27.530Z,1.3
2019-04-04T10:11:27.695Z,1.5
2019-04-04T10:12:29.468Z,1.8
2019-04-04T10:13:28.692Z,1.4
2019-04-04T10:14:27.843Z,1.4
2019-04-04T10:15:27.802Z,1.6
2019-04-04T10:16:28.369Z,1.9
2019-04-04T10:17:27.889Z,1.5
2019-04-04T10:18:28.253Z,1.4
2019-04-04T10:19:27.865Z,1.5
2019-04-04T10:20:28.524Z,1.4
2019-04-04T10:21:28.118Z,1.9
2019-04-04T10:22:27.971Z,1.6
2019-04-04T10:23:28.190Z,1.6
2019-04-04T10:24:28.022Z,1.5
2019-04-04T10:25:28.013Z,1.5
2019-04-04T10:26:28.068Z,1.4
2019-04-04T10:27:30.971Z,1.5
2019-04-04T10:28:28.134Z,1.5
2019-04-04T10:29:28.409Z,1.4
2019-04-04T10:30:28.428Z,1.5
2019-04-04T10:31:28.606Z,1.4
2019-04-04T10:32:28.391Z,1.3
2019-04-04T10:33:29.538Z,1.8
2019-04-04T10:34:28.790Z,1.4
2019-04-04T10:35:28.614Z,1.2
2019-04-04T10:36:28.433Z,1.5
2019-04-04T10:37:28.417Z,1.3
2019-04-04T10:38:28.431Z,1.3
2019-04-04T10:39:30.169Z,1.4
2019-04-04T10:40:29.864Z,1.4
2019-04-04T10:41:28.608Z,1.4
2019-04-04T10:42:30.300Z,1.6
2019-04-04T10:43:28.855Z,1.4
2019-04-04T10:44:28.807Z,1.4
2019-04-04T10:45:28.879Z,1.4
2019-04-04T10:46:28.986Z,1.8
2019-04-04T10:47:28.970Z,1.5
2019-04-04T10:48:28.997Z,1.4
2019-04-04T10:49:29.081Z,1.4
2019-04-04T10:50:29.084Z,1.4
2019-04-04T10:51:29.081Z,1.4
2019-04-04T10:52:29.083Z,1.4
2019-04-04T10:53:29.058Z,1.6
2019-04-04T10:54:29.073Z,1.6
2019-04-04T10:55:29.136Z,1.5
2019-04-04T10:56:29.179Z,1.3
2019-04-04T10:57:29.154Z,1.3
2019-04-04T10:58:30.194Z,1.4
2019-04-04T10:59:29.387Z,1.5
2019-04-04T11:00:29.362Z,1.2
2019-04-04T11:01:29.360Z,1.4
2019-04-04T11:02:29.362Z,1.5
2019-04-04T11:03:29.371Z,1.3
2019-04-04T11:04:29.886Z,1.3
2019-04-04T11:05:29.513Z,1.3
2019-04-04T11:06:29.497Z,1.4
2019-04-04T11:07:29.726Z,1.4
2019-04-04T11:08:29.612Z,1.6
2019-04-04T11:09:41.250Z,1.2
2019-04-04T11:10:30.733Z,1.2
2019-04-04T11:11:30.075Z,1.2
2019-04-04T11:12:29.929Z,1.4
2019-04-04T11:13:33.607Z,1.4
2019-04-04T11:14:30.962Z,1.5
2019-04-04T11:15:30.078Z,1.3
2019-04-04T11:16:30.713Z,1.4
2019-04-04T11:17:30.048Z,1.6
2019-04-04T11:18:30.802Z,1.3
2019-04-04T11:19:31.229Z,1.4
2019-04-04T11:20:31.265Z,1.4
2019-04-04T11:21:30.364Z,1.2
2019-04-04T11:22:30.450Z,1.3
2019-04-04T11:23:30.476Z,1.2
2019-04-04T11:24:30.484Z,1.4
2019-04-04T11:25:30.512Z,1.5
2019-04-04T11:26:30.680Z,1.3
2019-04-04T11:27:30.704Z,1.4
2019-04-04T11:28:30.751Z,1.4
2019-04-04T11:29:30.780Z,1.4
2019-04-04T11:30:30.878Z,1.6
2019-04-04T11:31:30.918Z,1.5
2019-04-04T11:32:30.953Z,1.2
2019-04-04T11:33:31.011Z,1.5
2019-04-04T11:34:31.032Z,1.4
2019-04-04T11:35:31.150Z,1.3
2019-04-04T11:36:31.170Z,1.4
2019-04-04T11:37:31.283Z,1.3
2019-04-04T11:38:31.344Z,1.4
2019-04-04T11:39:31.357Z,1.2
2019-04-04T11:40:31.390Z,1.4
2019-04-04T11:41:31.466Z,1.4
2019-04-04T11:42:31.477Z,1.4
2019-04-04T11:43:31.501Z,1.3
2019-04-04T11:44:31.520Z,1.1
2019-04-04T11:45:31.785Z,1.2
2019-04-04T11:46:31.620Z,1.5
2019-04-04T11:47:31.634Z,1.6
2019-04-04T11:48:31.844Z,1.3
2019-04-04T11:49:31.942Z,1.2
2019-04-04T11:50:31.917Z,1.3
2019-04-04T11:51:31.990Z,1.3
2019-04-04T11:52:31.975Z,1.3
2019-04-04T11:53:32.243Z,1.2
2019-04-04T11:54:32.176Z,1.4
2019-04-04T11:55:32.822Z,1.5
2019-04-04T11:56:32.093Z,1.4
2019-04-04T11:57:32.077Z,1.2
2019-04-04T11:58:32.082Z,1.3
2019-04-04T11:59:32.052Z,1.4
2019-04-04T12:00:32.212Z,1.4
2019-04-04T12:01:32.185Z,1.5
2019-04-04T12:02:32.805Z,1.4
2019-04-04T12:03:32.369Z,1.3
2019-04-04T12:04:32.375Z,3.6
2019-04-04T12:05:32.474Z,5.5
2019-04-04T12:06:32.488Z,4.6
2019-04-04T12:07:32.647Z,4.4
2019-04-04T12:08:32.769Z,6.2
2019-04-04T12:09:32.751Z,5.9
2019-04-04T12:10:33.192Z,5.3
2019-04-04T12:11:33.018Z,6.1
2019-04-04T12:12:33.151Z,5.3
2019-04-04T12:13:34.169Z,6.1
2019-04-04T12:14:36.213Z,5.8
2019-04-04T12:15:33.757Z,5.2
2019-04-04T12:16:33.659Z,5.1
2019-04-04T12:17:33.418Z,6.7
2019-04-04T12:18:33.674Z,6.5
2019-04-04T12:19:33.739Z,6
2019-04-04T12:20:34.775Z,6.3
2019-04-04T12:21:33.828Z,6
2019-04-04T12:22:34.025Z,6.9
2019-04-04T12:23:34.401Z,7.2
2019-04-04T12:24:34.243Z,6.5
2019-04-04T12:25:34.402Z,6.5
2019-04-04T12:26:34.593Z,6.5
2019-04-04T12:27:35.027Z,6.8
2019-04-04T12:28:35.376Z,6.6
2019-04-04T12:29:36.213Z,6
2019-04-04T12:30:36.769Z,7.3
2019-04-04T12:31:35.133Z,7.2
2019-04-04T12:32:35.500Z,6.2
2019-04-04T12:33:35.572Z,7.1
2019-04-04T12:34:35.505Z,6.8
2019-04-04T12:35:35.738Z,6.4
2019-04-04T12:36:35.867Z,5.2
2019-04-04T12:37:36.227Z,6.9
2019-04-04T12:38:36.192Z,6.6
2019-04-04T12:39:36.193Z,6.1
2019-04-04T12:40:36.703Z,6.1
2019-04-04T12:41:36.279Z,5.9
2019-04-04T12:42:36.562Z,6.1
2019-04-04T12:43:36.523Z,6.4
2019-04-04T12:44:36.771Z,6.4
2019-04-04T12:45:36.718Z,5.4
2019-04-04T12:46:37.826Z,6
2019-04-04T12:47:37.026Z,6.1
2019-04-04T12:48:37.362Z,6.6
2019-04-04T12:49:37.496Z,5.9
2019-04-04T12:50:37.493Z,6.1
2019-04-04T12:51:37.690Z,5.4
2019-04-04T12:52:37.881Z,6
2019-04-04T12:53:38.308Z,5.9
2019-04-04T12:54:38.131Z,5
2019-04-04T12:55:38.304Z,6.3
2019-04-04T12:56:38.488Z,5.2
2019-04-04T12:57:38.736Z,6
2019-04-04T12:58:39.030Z,5.9
2019-04-04T12:59:39.048Z,6.6
2019-04-04T13:00:39.213Z,6.2
2019-04-04T13:01:39.192Z,6.1
2019-04-04T13:02:39.330Z,5.8
2019-04-04T13:03:39.479Z,5.2
2019-04-04T13:04:39.715Z,6.1
2019-04-04T13:05:39.945Z,5.6
2019-04-04T13:06:39.965Z,6.3
2019-04-04T13:07:40.073Z,6.2
2019-04-04T13:08:40.193Z,4.3
2019-04-04T13:09:41.007Z,4.2
2019-04-04T13:10:40.324Z,4.4
2019-04-04T13:11:40.595Z,4.4
2019-04-04T13:12:40.723Z,4
2019-04-04T13:13:41.187Z,3.5
2019-04-04T13:14:42.183Z,3.5
2019-04-04T13:15:40.904Z,3.3
2019-04-04T13:16:40.915Z,3.8
2019-04-04T13:17:41.224Z,3.3
2019-04-04T13:18:41.431Z,3.6
2019-04-04T13:19:41.395Z,3.1
2019-04-04T13:20:41.766Z,3.2
2019-04-04T13:21:41.501Z,3.3
2019-04-04T13:22:41.640Z,3.1
2019-04-04T13:23:41.635Z,3.6
2019-04-04T13:24:42.153Z,3.7
2019-04-04T13:25:41.765Z,3.2
2019-04-04T13:26:42.027Z,3.1
2019-04-04T13:27:42.076Z,3.1
2019-04-04T13:28:42.193Z,3.1
2019-04-04T13:29:42.228Z,2.9
2019-04-04T13:30:42.234Z,2.8
2019-04-04T13:31:42.303Z,3.3
2019-04-04T13:32:42.314Z,3.2
2019-04-04T13:33:42.372Z,3.5
2019-04-04T13:34:42.388Z,3.4
2019-04-04T13:35:42.470Z,2.9
2019-04-04T13:36:42.481Z,2.9
2019-04-04T13:37:42.541Z,3
2019-04-04T13:38:42.681Z,3.2
2019-04-04T13:39:42.800Z,3.4
2019-04-04T13:40:45.543Z,3.5
2019-04-04T13:41:44.626Z,3.4
2019-04-04T13:42:43.005Z,3.1
2019-04-04T13:43:43.000Z,3
2019-04-04T13:44:44.889Z,2.7
2019-04-04T13:45:44.047Z,2.9
2019-04-04T13:46:43.169Z,2.9
2019-04-04T13:47:43.166Z,2.9
2019-04-04T13:48:44.117Z,2.7
2019-04-04T13:49:44.313Z,2.7
2019-04-04T13:50:44.665Z,2.4
2019-04-04T13:51:44.183Z,2.9